Time;durP1;ratioP1;P1;durP2;ratioP2;P2;SDS_P1;SDS_P2;PMS_P1;PMS_P2;Temp;Humidity;BMP_temperature;BMP_pressure;BME280_temperature;BME280_humidity;BME280_pressure;Samples;Min_cycle;Max_cycle;Signal;HPM_P1;HPM_P2
2022/05/14 00:02:02;;;;;;;3.22;2.15;;;16.60;99.90;;;;;;5033203;28;20257;-93
2022/05/14 00:04:30;;;;;;;2.33;2.00;;;16.60;99.90;;;;;;5032501;28;20226;-93
2022/05/14 00:06:59;;;;;;;15.23;2.20;;;16.50;99.90;;;;;;5032726;28;20318;-93
2022/05/14 00:09:27;;;;;;;3.03;2.00;;;16.50;99.90;;;;;;5033122;28;20207;-92
2022/05/14 00:14:43;;;;;;;1.95;1.80;;;16.40;99.90;;;;;;5032407;28;20268;-93
2022/05/14 00:17:12;;;;;;;2.00;1.83;;;16.40;99.90;;;;;;5032603;28;20229;-93
2022/05/14 00:19:40;;;;;;;1.60;1.50;;;16.30;99.90;;;;;;5032241;28;20202;-94
2022/05/14 00:22:09;;;;;;;2.97;1.65;;;16.30;99.90;;;;;;5032531;28;20217;-93
2022/05/14 00:24:37;;;;;;;2.90;2.25;;;16.20;99.90;;;;;;5033008;28;20199;-95
2022/05/14 00:27:06;;;;;;;2.60;2.05;;;16.20;99.90;;;;;;5032396;28;20237;-94
2022/05/14 00:29:34;;;;;;;2.33;1.42;;;16.10;99.90;;;;;;5032448;28;20210;-93
2022/05/14 00:32:05;;;;;;;2.63;1.70;;;16.10;99.90;;;;;;5032479;28;20234;-93
2022/05/14 00:34:33;;;;;;;2.53;1.77;;;16.10;99.90;;;;;;5032423;28;20226;-93
2022/05/14 00:37:02;;;;;;;3.65;1.85;;;16.10;99.90;;;;;;5032537;28;20202;-95
2022/05/14 00:39:30;;;;;;;2.63;1.65;;;16.00;99.90;;;;;;5032391;28;20214;-93
2022/05/14 00:41:59;;;;;;;7.30;1.80;;;16.00;99.90;;;;;;5032007;28;20207;-92
2022/05/14 00:44:27;;;;;;;2.78;1.90;;;16.00;99.90;;;;;;5032370;28;20245;-93
2022/05/14 00:47:01;;;;;;;2.95;1.60;;;16.00;99.90;;;;;;5032185;28;20222;-94
2022/05/14 00:49:34;;;;;;;2.38;1.55;;;15.90;99.90;;;;;;5032450;28;20229;-94
2022/05/14 00:52:04;;;;;;;3.03;1.60;;;15.90;99.90;;;;;;5032007;28;20229;-92
2022/05/14 00:54:37;;;;;;;1.73;1.50;;;15.90;99.90;;;;;;5032436;28;20207;-94
2022/05/14 00:57:10;;;;;;;1.80;1.67;;;15.90;99.90;;;;;;5032357;28;20214;-93
2022/05/14 00:59:39;;;;;;;7.82;2.17;;;15.80;99.90;;;;;;5032158;28;20207;-96
2022/05/14 01:02:08;;;;;;;2.75;1.70;;;15.80;99.90;;;;;;5031968;28;20199;-95
2022/05/14 01:04:41;;;;;;;2.05;1.58;;;15.80;99.90;;;;;;5032782;28;20297;-93
2022/05/14 01:07:13;;;;;;;3.15;1.65;;;15.70;99.90;;;;;;5032106;28;20227;-93
2022/05/14 01:09:45;;;;;;;1.65;1.52;;;15.70;99.90;;;;;;5032216;28;20207;-93
2022/05/14 01:12:15;;;;;;;1.75;1.65;;;15.70;99.90;;;;;;5032020;28;20211;-92
2022/05/14 01:14:44;;;;;;;1.98;1.55;;;15.70;99.90;;;;;;5032156;28;20245;-93
2022/05/14 01:17:12;;;;;;;2.58;2.03;;;15.60;99.90;;;;;;5032364;28;20245;-95
2022/05/14 01:19:42;;;;;;;1.70;1.60;;;15.60;99.90;;;;;;5031995;28;20227;-93
2022/05/14 01:22:28;;;;;;;2.08;1.88;;;15.50;99.90;;;;;;5031943;28;20195;-94
2022/05/14 01:27:54;;;;;;;3.40;1.83;;;15.40;99.90;;;;;;5032091;28;20218;-92
2022/05/14 01:30:22;;;;;;;3.03;1.60;;;15.40;99.90;;;;;;5031952;28;20207;-94
2022/05/14 01:33:04;;;;;;;1.98;1.77;;;15.30;99.90;;;;;;5031882;28;20238;-93
2022/05/14 01:35:35;;;;;;;3.63;2.45;;;15.30;99.90;;;;;;5032196;28;20217;-94
2022/05/14 01:38:03;;;;;;;3.78;1.80;;;15.20;99.90;;;;;;5033249;28;20281;-93
2022/05/14 01:40:33;;;;;;;4.97;2.35;;;15.20;99.90;;;;;;5035403;28;20218;-93
2022/05/14 01:43:03;;;;;;;1.80;1.67;;;15.20;99.90;;;;;;5035345;28;20226;-93
2022/05/14 01:45:32;;;;;;;2.45;1.73;;;15.10;99.90;;;;;;5035610;28;20237;-94
2022/05/14 01:48:00;;;;;;;4.05;1.83;;;15.10;99.90;;;;;;5034935;28;20222;-93
2022/05/14 01:50:29;;;;;;;3.75;2.80;;;15.10;99.90;;;;;;5035448;28;20264;-93
2022/05/14 01:52:58;;;;;;;2.30;1.90;;;15.10;99.90;;;;;;5035124;28;20231;-93
2022/05/14 01:55:26;;;;;;;1.92;1.83;;;15.10;99.90;;;;;;5035313;28;20203;-94
2022/05/14 01:57:55;;;;;;;3.20;2.17;;;15.00;99.90;;;;;;5035200;28;20353;-93
2022/05/14 02:00:25;;;;;;;6.72;1.77;;;15.00;99.90;;;;;;5034973;28;20231;-93
2022/05/14 02:02:54;;;;;;;2.05;1.85;;;14.90;99.90;;;;;;5035227;28;20319;-94
2022/05/14 02:05:23;;;;;;;2.95;1.80;;;14.90;99.90;;;;;;5034740;28;20256;-94
2022/05/14 02:07:52;;;;;;;1.42;1.33;;;14.80;99.90;;;;;;5034772;28;20276;-93
2022/05/14 02:10:21;;;;;;;2.80;1.75;;;14.80;99.90;;;;;;5035000;28;20202;-94
2022/05/14 02:12:49;;;;;;;2.65;1.67;;;14.70;99.90;;;;;;5035109;28;20292;-94
2022/05/14 02:15:18;;;;;;;2.53;1.50;;;14.70;99.90;;;;;;5034908;28;20198;-93
2022/05/14 02:17:48;;;;;;;1.90;1.80;;;14.60;99.90;;;;;;5034665;28;20203;-94
2022/05/14 02:20:17;;;;;;;1.98;1.88;;;14.60;99.90;;;;;;5034527;28;20206;-93
2022/05/14 02:22:45;;;;;;;2.47;2.28;;;14.60;99.90;;;;;;5035095;28;20237;-94
2022/05/14 02:25:14;;;;;;;1.70;1.60;;;14.60;99.90;;;;;;5034864;28;20214;-94
2022/05/14 02:27:43;;;;;;;2.42;1.80;;;14.50;99.90;;;;;;5034445;28;20206;-93
2022/05/14 02:30:12;;;;;;;2.42;1.83;;;14.50;99.90;;;;;;5034628;28;20291;-93
2022/05/14 02:32:41;;;;;;;2.22;1.80;;;14.50;99.90;;;;;;5034098;28;20259;-93
2022/05/14 02:35:12;;;;;;;3.50;2.17;;;14.60;99.90;;;;;;5034291;28;20202;-93
2022/05/14 02:37:41;;;;;;;1.63;1.33;;;14.60;99.90;;;;;;5034071;28;20226;-93
2022/05/14 02:40:10;;;;;;;2.03;1.77;;;14.50;99.90;;;;;;5034152;28;20268;-93
2022/05/14 02:42:38;;;;;;;2.70;2.45;;;14.50;99.90;;;;;;5034287;28;20314;-93
2022/05/14 02:45:08;;;;;;;2.42;1.88;;;14.50;99.90;;;;;;5034323;28;20210;-93
2022/05/14 02:47:38;;;;;;;1.67;1.42;;;14.50;99.90;;;;;;5034318;28;20202;-93
2022/05/14 02:50:09;;;;;;;2.92;2.00;;;14.50;99.90;;;;;;5034395;28;20199;-93
2022/05/14 02:52:39;;;;;;;2.97;1.75;;;14.50;99.90;;;;;;5034373;28;20226;-93
2022/05/14 02:55:09;;;;;;;4.40;2.15;;;14.50;99.90;;;;;;5033991;28;20203;-93
2022/05/14 02:57:38;;;;;;;1.55;1.45;;;14.50;99.90;;;;;;5033890;28;20217;-93
2022/05/14 03:00:10;;;;;;;2.40;1.70;;;14.50;99.90;;;;;;5034133;28;20260;-94
2022/05/14 03:02:38;;;;;;;2.53;1.95;;;14.50;99.90;;;;;;5034144;28;20230;-93
2022/05/14 03:05:08;;;;;;;1.42;1.33;;;14.50;99.90;;;;;;5034198;28;20217;-93
2022/05/14 03:07:38;;;;;;;3.10;2.10;;;14.50;99.90;;;;;;5033742;28;20261;-93
2022/05/14 03:10:07;;;;;;;1.70;1.60;;;14.50;99.90;;;;;;5033710;28;20280;-94
2022/05/14 03:12:36;;;;;;;2.08;1.58;;;14.40;99.90;;;;;;5033493;28;20218;-94
2022/05/14 03:15:06;;;;;;;3.20;2.25;;;14.40;99.90;;;;;;5033488;28;20270;-94
2022/05/14 03:17:35;;;;;;;1.70;1.45;;;14.40;99.90;;;;;;5033789;28;20227;-92
2022/05/14 03:20:06;;;;;;;1.80;1.65;;;14.40;99.90;;;;;;5033724;28;20233;-94
2022/05/14 03:22:34;;;;;;;2.33;1.75;;;14.40;99.90;;;;;;5033509;28;20219;-95
2022/05/14 03:25:06;;;;;;;1.60;1.33;;;14.40;99.90;;;;;;5033366;28;20268;-95
2022/05/14 03:27:35;;;;;;;1.75;1.65;;;14.40;99.90;;;;;;5033305;28;20225;-94
2022/05/14 03:30:04;;;;;;;1.90;1.80;;;14.40;99.90;;;;;;5033180;28;20304;-94
2022/05/14 03:32:33;;;;;;;2.20;2.00;;;14.30;99.90;;;;;;5033074;28;20223;-93
2022/05/14 03:35:05;;;;;;;3.03;2.03;;;14.30;99.90;;;;;;5032909;28;20233;-93
2022/05/14 03:37:34;;;;;;;4.18;1.98;;;14.30;99.90;;;;;;5033137;28;20203;-93
2022/05/14 03:40:05;;;;;;;1.80;1.58;;;14.30;99.90;;;;;;5033257;28;20209;-93
2022/05/14 03:42:33;;;;;;;3.03;2.17;;;14.30;99.90;;;;;;5033337;28;20223;-94
2022/05/14 03:45:02;;;;;;;1.80;1.70;;;14.30;99.90;;;;;;5033363;28;20289;-94
2022/05/14 03:47:30;;;;;;;2.75;1.80;;;14.30;99.90;;;;;;5032879;28;20206;-93
2022/05/14 03:49:59;;;;;;;1.70;1.60;;;14.30;99.90;;;;;;5033063;28;20250;-94
2022/05/14 03:52:27;;;;;;;1.92;1.75;;;14.30;99.90;;;;;;5032988;28;20299;-90
2022/05/14 03:54:56;;;;;;;3.35;2.08;;;14.30;99.90;;;;;;5032969;28;20202;-92
2022/05/14 03:57:26;;;;;;;3.90;2.13;;;14.30;99.90;;;;;;5033324;28;20203;-93
2022/05/14 03:59:54;;;;;;;3.08;1.60;;;14.30;99.90;;;;;;5033598;28;20230;-91
2022/05/14 04:02:23;;;;;;;2.15;1.73;;;14.30;99.90;;;;;;5032231;28;20390;-92
2022/05/14 04:04:51;;;;;;;3.88;2.10;;;14.40;99.90;;;;;;5033018;28;20222;-93
2022/05/14 04:07:20;;;;;;;2.95;1.95;;;14.40;99.90;;;;;;5032816;28;20227;-93
2022/05/14 04:09:48;;;;;;;2.03;1.83;;;14.40;99.90;;;;;;5032571;28;20222;-93
2022/05/14 04:12:17;;;;;;;9.65;2.38;;;14.40;99.90;;;;;;5032690;28;20314;-95
2022/05/14 04:14:47;;;;;;;1.40;1.30;;;14.40;99.90;;;;;;5032705;28;20210;-92
2022/05/14 04:17:16;;;;;;;7.60;2.22;;;14.40;99.90;;;;;;5032672;28;20210;-93
2022/05/14 04:19:44;;;;;;;2.47;2.20;;;14.50;99.90;;;;;;5032381;28;20206;-93
2022/05/14 04:22:12;;;;;;;2.83;1.88;;;14.40;99.90;;;;;;5032424;28;20198;-94
2022/05/14 04:24:41;;;;;;;2.42;1.88;;;14.50;99.90;;;;;;5032736;28;20210;-94
2022/05/14 04:27:09;;;;;;;1.70;1.60;;;14.50;99.90;;;;;;5032706;28;20203;-93
2022/05/14 04:29:38;;;;;;;2.40;2.15;;;14.50;99.90;;;;;;5032390;28;20253;-92
2022/05/14 04:32:09;;;;;;;4.75;2.08;;;14.50;99.90;;;;;;5032469;28;20202;-93
2022/05/14 04:34:41;;;;;;;2.55;1.70;;;14.50;99.90;;;;;;5032352;28;20225;-94
2022/05/14 04:37:10;;;;;;;1.77;1.67;;;14.50;99.90;;;;;;5032654;28;20225;-93
2022/05/14 04:39:39;;;;;;;1.92;1.83;;;14.50;99.90;;;;;;5032389;28;20210;-94
2022/05/14 04:42:10;;;;;;;2.97;1.95;;;14.50;99.90;;;;;;5032000;28;20265;-94
2022/05/14 04:44:40;;;;;;;2.25;2.03;;;14.60;99.90;;;;;;5032327;28;20262;-93
2022/05/14 04:47:10;;;;;;;3.03;2.17;;;14.70;99.90;;;;;;5032343;28;20237;-94
2022/05/14 04:49:41;;;;;;;4.50;1.80;;;14.70;99.90;;;;;;5032215;28;20249;-93
2022/05/14 04:52:13;;;;;;;1.73;1.63;;;14.70;99.90;;;;;;5032489;28;20232;-93
2022/05/14 04:54:42;;;;;;;1.90;1.50;;;14.70;99.90;;;;;;5032656;28;20214;-93
2022/05/14 04:57:11;;;;;;;2.05;1.83;;;14.70;99.90;;;;;;5032422;28;20234;-93
2022/05/14 04:59:39;;;;;;;1.75;1.50;;;14.80;99.90;;;;;;5032071;28;20206;-94
2022/05/14 05:04:55;;;;;;;2.22;2.05;;;14.90;99.90;;;;;;5032471;28;20206;-92
2022/05/14 05:07:24;;;;;;;2.15;1.73;;;14.90;99.90;;;;;;5032088;28;20257;-93
2022/05/14 05:09:53;;;;;;;3.15;1.67;;;14.90;99.90;;;;;;5032072;28;20222;-94
2022/05/14 05:12:22;;;;;;;6.78;1.90;;;15.00;99.90;;;;;;5031991;28;20230;-95
2022/05/14 05:14:55;;;;;;;3.90;2.03;;;15.00;99.90;;;;;;5035805;28;20210;-92
2022/05/14 05:17:25;;;;;;;2.17;1.92;;;15.00;99.90;;;;;;5036450;28;20202;-94
2022/05/14 05:19:53;;;;;;;4.22;1.92;;;15.10;99.90;;;;;;5035945;28;20195;-93
2022/05/14 05:22:22;;;;;;;2.78;1.95;;;15.10;99.90;;;;;;5035503;28;20222;-93
2022/05/14 05:24:50;;;;;;;4.00;2.40;;;15.20;99.90;;;;;;5035405;28;20230;-93
2022/05/14 05:27:19;;;;;;;1.92;1.63;;;15.20;99.90;;;;;;5035741;28;20203;-90
2022/05/14 05:29:47;;;;;;;2.58;1.65;;;15.20;99.90;;;;;;5035518;28;20214;-92
2022/05/14 05:32:15;;;;;;;5.35;2.33;;;15.30;99.90;;;;;;5035853;28;20246;-90
2022/05/14 05:34:46;;;;;;;1.75;1.63;;;15.40;99.90;;;;;;5035412;28;20226;-91
2022/05/14 05:37:14;;;;;;;2.72;2.03;;;15.50;99.90;;;;;;5035443;28;20237;-91
2022/05/14 05:39:42;;;;;;;3.05;2.67;;;15.50;99.90;;;;;;5035361;28;20245;-91
2022/05/14 05:42:11;;;;;;;4.07;2.72;;;15.50;99.90;;;;;;5039036;28;20229;-90
2022/05/14 05:44:43;;;;;;;6.47;2.65;;;15.50;99.90;;;;;;5040738;28;20214;-91
2022/05/14 05:47:11;;;;;;;6.07;2.97;;;15.50;99.90;;;;;;5038715;28;20202;-91
2022/05/14 05:49:42;;;;;;;3.33;2.53;;;15.60;99.90;;;;;;5038859;28;20330;-91
2022/05/14 05:52:12;;;;;;;4.70;3.53;;;15.70;99.90;;;;;;5035323;28;20242;-92
2022/05/14 05:57:32;;;;;;;4.80;2.80;;;15.70;99.90;;;;;;5035616;28;20206;-91
2022/05/14 06:00:01;;;;;;;2.97;2.55;;;15.80;99.90;;;;;;5035726;28;20244;-90
2022/05/14 06:02:29;;;;;;;6.88;3.20;;;15.80;99.90;;;;;;5034657;28;20273;-91
2022/05/14 06:04:57;;;;;;;4.60;2.90;;;15.90;99.90;;;;;;5034754;28;20210;-93
2022/05/14 06:07:29;;;;;;;4.03;3.22;;;15.90;99.90;;;;;;5034396;28;20229;-93
2022/05/14 06:09:57;;;;;;;3.22;2.42;;;16.00;99.90;;;;;;5034969;28;20225;-94
2022/05/14 06:12:26;;;;;;;3.20;2.42;;;16.00;99.90;;;;;;5035037;28;20273;-92
2022/05/14 06:14:54;;;;;;;3.17;2.72;;;16.00;99.90;;;;;;5034777;28;20206;-93
2022/05/14 06:17:23;;;;;;;4.60;2.40;;;16.10;99.90;;;;;;5034667;28;20237;-93
2022/05/14 06:19:51;;;;;;;4.07;2.90;;;16.20;99.90;;;;;;5034745;28;20211;-93
2022/05/14 06:22:21;;;;;;;2.80;2.33;;;16.30;99.90;;;;;;5034853;28;20253;-92
2022/05/14 06:24:51;;;;;;;3.30;2.30;;;16.40;99.90;;;;;;5034397;28;20222;-92
2022/05/14 06:27:20;;;;;;;2.35;2.10;;;16.60;99.90;;;;;;5034663;28;20301;-92
2022/05/14 06:29:48;;;;;;;3.35;3.05;;;16.70;99.90;;;;;;5034737;28;20317;-93
2022/05/14 06:32:17;;;;;;;2.50;2.30;;;16.70;99.90;;;;;;5034108;28;20268;-92
2022/05/14 06:34:45;;;;;;;2.00;1.80;;;16.80;99.90;;;;;;5033955;28;20234;-92
2022/05/14 06:37:14;;;;;;;4.00;2.97;;;16.90;99.90;;;;;;5034412;28;20210;-92
2022/05/14 06:39:43;;;;;;;2.58;2.38;;;17.00;99.90;;;;;;5034303;28;20299;-92
2022/05/14 06:42:13;;;;;;;2.40;2.20;;;17.10;99.90;;;;;;5034232;28;20306;-93
2022/05/14 06:44:42;;;;;;;2.35;2.05;;;17.30;99.90;;;;;;5034314;28;20221;-91
2022/05/14 06:47:11;;;;;;;6.53;2.75;;;17.40;99.90;;;;;;5034134;28;20222;-92
2022/05/14 06:49:39;;;;;;;3.13;2.75;;;17.60;99.90;;;;;;5034175;28;20206;-92
2022/05/14 06:52:11;;;;;;;3.88;2.42;;;17.70;99.90;;;;;;5034070;28;20230;-91
2022/05/14 06:54:42;;;;;;;5.22;3.20;;;17.90;99.90;;;;;;5034102;28;20217;-92
2022/05/14 06:57:13;;;;;;;5.25;3.47;;;18.00;99.90;;;;;;5034152;28;20272;-93
2022/05/14 06:59:41;;;;;;;2.78;2.15;;;18.20;99.90;;;;;;5034176;28;20230;-94
2022/05/14 07:02:12;;;;;;;2.63;2.20;;;18.30;99.90;;;;;;5033727;28;20207;-93
2022/05/14 07:07:27;;;;;;;3.65;2.53;;;18.70;99.90;;;;;;5033679;28;20206;-92
2022/05/14 07:09:55;;;;;;;2.22;2.00;;;19.00;99.90;;;;;;5033431;28;20226;-91
2022/05/14 07:12:26;;;;;;;5.40;3.25;;;19.10;99.80;;;;;;5033234;28;20242;-92
2022/05/14 07:14:55;;;;;;;3.63;3.05;;;19.30;99.60;;;;;;5033594;28;20291;-92
2022/05/14 07:17:26;;;;;;;2.88;2.50;;;19.50;98.20;;;;;;5033300;28;20237;-93
2022/05/14 07:19:54;;;;;;;2.38;2.15;;;19.80;97.30;;;;;;5033656;28;20210;-93
2022/05/14 07:22:23;;;;;;;6.55;2.85;;;20.30;97.50;;;;;;5033332;28;20218;-92
2022/05/14 07:24:52;;;;;;;3.30;2.40;;;20.80;96.10;;;;;;5033377;28;20254;-92
2022/05/14 07:27:20;;;;;;;1.98;1.83;;;21.70;93.30;;;;;;5033649;28;20306;-93
2022/05/14 07:29:50;;;;;;;2.22;1.88;;;22.40;90.80;;;;;;5033494;28;20277;-92
2022/05/14 07:32:20;;;;;;;2.55;2.35;;;22.80;88.30;;;;;;5033267;28;20309;-92
2022/05/14 07:34:49;;;;;;;3.38;1.95;;;23.60;85.60;;;;;;5032917;28;20256;-92
2022/05/14 07:37:21;;;;;;;3.10;2.72;;;24.20;82.10;;;;;;5032675;28;20309;-92
2022/05/14 07:39:52;;;;;;;2.08;1.67;;;24.70;80.20;;;;;;5032909;28;20308;-93
2022/05/14 07:42:25;;;;;;;2.70;1.92;;;25.60;74.90;;;;;;5033471;28;20222;-93
2022/05/14 07:44:58;;;;;;;5.00;1.88;;;26.10;73.10;;;;;;5033397;28;20202;-92
2022/05/14 07:47:27;;;;;;;2.38;1.60;;;26.30;68.60;;;;;;5033571;28;20199;-91
2022/05/14 07:49:56;;;;;;;1.80;1.60;;;27.30;67.10;;;;;;5032945;28;20237;-92
2022/05/14 07:52:25;;;;;;;1.30;1.20;;;27.70;63.20;;;;;;5032582;28;20227;-91
2022/05/14 07:54:54;;;;;;;4.32;1.70;;;27.50;60.90;;;;;;5033239;28;20293;-92
2022/05/14 07:57:22;;;;;;;11.23;1.60;;;27.50;60.40;;;;;;5033139;28;20230;-92
2022/05/14 07:59:51;;;;;;;2.25;1.50;;;27.70;59.50;;;;;;5033099;28;20236;-92
2022/05/14 08:02:28;;;;;;;1.60;1.50;;;28.20;58.40;;;;;;5032657;28;20276;-92
2022/05/14 08:04:57;;;;;;;1.70;1.60;;;29.20;59.60;;;;;;5032813;28;20197;-92
2022/05/14 08:07:26;;;;;;;1.83;1.65;;;30.20;54.70;;;;;;5032999;28;20293;-95
2022/05/14 08:09:59;;;;;;;1.90;1.45;;;29.60;53.40;;;;;;5032789;28;20208;-94
2022/05/14 08:12:33;;;;;;;2.22;1.75;;;30.10;51.60;;;;;;5032466;28;20230;-92
2022/05/14 08:15:02;;;;;;;2.00;1.80;;;31.10;53.40;;;;;;5032722;28;20292;-92
2022/05/14 08:17:32;;;;;;;1.92;1.83;;;31.90;54.20;;;;;;5032912;28;20205;-92
2022/05/14 08:20:00;;;;;;;1.60;1.40;;;32.00;50.90;;;;;;5032872;28;20272;-91
2022/05/14 08:25:14;;;;;;;5.18;1.70;;;32.80;50.10;;;;;;5032798;28;20256;-92
2022/05/14 08:27:45;;;;;;;1.88;1.48;;;32.30;47.00;;;;;;5033187;28;20255;-91
2022/05/14 08:30:14;;;;;;;1.85;1.75;;;32.10;45.80;;;;;;5032500;28;20233;-91
2022/05/14 08:32:44;;;;;;;1.42;1.33;;;31.90;47.00;;;;;;5032385;28;20225;-92
2022/05/14 08:35:14;;;;;;;2.08;1.75;;;32.00;47.00;;;;;;5032233;28;20225;-91
2022/05/14 08:37:44;;;;;;;2.15;1.55;;;32.30;49.10;;;;;;5032195;28;20202;-91
2022/05/14 08:40:19;;;;;;;1.77;1.67;;;32.70;45.70;;;;;;5032367;28;20277;-91
2022/05/14 08:42:54;;;;;;;2.03;1.67;;;32.70;45.30;;;;;;5032621;28;20241;-92
2022/05/14 08:45:26;;;;;;;4.35;1.88;;;33.00;48.50;;;;;;5032796;28;20216;-91
2022/05/14 08:47:58;;;;;;;1.52;1.42;;;33.10;44.70;;;;;;5034695;28;20228;-92
2022/05/14 08:50:31;;;;;;;1.58;1.48;;;33.60;43.70;;;;;;5035827;28;20221;-93
2022/05/14 08:53:02;;;;;;;1.60;1.50;;;33.00;44.00;;;;;;5036467;28;20297;-91
2022/05/14 08:55:38;;;;;;;2.03;1.70;;;32.20;48.00;;;;;;5036434;28;20225;-91
2022/05/14 08:58:14;;;;;;;2.47;1.83;;;31.30;47.00;;;;;;5036248;28;20252;-91
2022/05/14 09:00:43;;;;;;;1.63;1.52;;;31.90;47.20;;;;;;5035991;28;20224;-91
2022/05/14 09:03:12;;;;;;;2.17;1.92;;;31.80;46.20;;;;;;5036434;28;20260;-91
2022/05/14 09:05:43;;;;;;;1.60;1.50;;;32.10;49.40;;;;;;5036090;28;20300;-91
2022/05/14 09:08:11;;;;;;;1.70;1.60;;;32.90;45.00;;;;;;5035983;28;20313;-91
2022/05/14 09:10:42;;;;;;;1.98;1.33;;;32.80;44.90;;;;;;5035741;28;20289;-91
2022/05/14 09:13:14;;;;;;;2.17;1.50;;;32.50;45.70;;;;;;5035501;28;20317;-92
2022/05/14 09:15:46;;;;;;;3.50;2.15;;;31.90;44.70;;;;;;5036167;28;20205;-94
2022/05/14 09:18:21;;;;;;;2.33;2.13;;;30.90;45.70;;;;;;5035642;28;20210;-93
2022/05/14 09:20:54;;;;;;;2.33;1.77;;;30.10;46.30;;;;;;5035826;28;20210;-91
2022/05/14 09:23:30;;;;;;;3.35;1.98;;;29.00;48.90;;;;;;5036086;28;20226;-90
2022/05/14 09:26:03;;;;;;;1.90;1.80;;;28.80;49.40;;;;;;5035788;28;20202;-91
2022/05/14 09:28:41;;;;;;;2.83;1.83;;;28.40;47.80;;;;;;5035674;28;20279;-92
2022/05/14 09:31:10;;;;;;;1.95;1.65;;;29.00;49.40;;;;;;5035274;28;20232;-91
2022/05/14 09:33:44;;;;;;;2.03;1.83;;;29.80;48.70;;;;;;5034741;28;20234;-92
2022/05/14 09:36:36;;;;;;;1.65;1.55;;;30.20;49.70;;;;;;5035956;28;20210;-91
2022/05/14 09:39:07;;;;;;;2.00;1.65;;;30.80;49.10;;;;;;5035502;28;20271;-91
2022/05/14 09:41:42;;;;;;;3.70;1.70;;;30.90;49.50;;;;;;5035262;28;20248;-92
2022/05/14 09:44:17;;;;;;;2.25;1.60;;;29.70;47.10;;;;;;5035634;28;20229;-91
2022/05/14 09:46:46;;;;;;;4.47;1.90;;;29.90;48.40;;;;;;5035519;28;20260;-91
2022/05/14 09:49:23;;;;;;;2.03;1.83;;;30.40;49.00;;;;;;5035462;28;20240;-91
2022/05/14 09:51:55;;;;;;;2.55;1.90;;;30.90;48.30;;;;;;5034860;28;20229;-91
2022/05/14 09:54:27;;;;;;;2.95;1.83;;;31.10;49.50;;;;;;5035038;28;20230;-90
2022/05/14 09:57:27;;;;;;;2.38;1.65;;;31.50;49.80;;;;;;5035353;28;20217;-91
2022/05/14 10:00:06;;;;;;;1.30;1.25;;;32.00;46.80;;;;;;5034507;28;20228;-91
2022/05/14 10:02:49;;;;;;;1.40;1.30;;;32.00;45.30;;;;;;5035125;28;20245;-91
2022/05/14 10:05:32;;;;;;;2.80;1.50;;;31.90;48.90;;;;;;5035162;28;20219;-91
2022/05/14 10:08:11;;;;;;;1.55;1.45;;;32.10;45.20;;;;;;5035051;28;20202;-90
2022/05/14 10:10:56;;;;;;;2.28;1.73;;;31.80;45.90;;;;;;5034669;28;20300;-91
2022/05/14 10:13:32;;;;;;;1.50;1.33;;;32.00;48.10;;;;;;5034524;28;20239;-91
2022/05/14 10:16:08;;;;;;;2.22;1.48;;;32.10;46.10;;;;;;5034596;28;20226;-90
2022/05/14 10:18:58;;;;;;;1.60;1.50;;;32.30;46.00;;;;;;5036472;28;20209;-91
2022/05/14 10:21:38;;;;;;;1.98;1.70;;;30.70;44.30;;;;;;5034742;28;20206;-91
2022/05/14 10:27:41;;;;;;;1.67;1.55;;;29.80;46.90;;;;;;5034573;28;20279;-91
2022/05/14 10:30:16;;;;;;;1.58;1.48;;;30.30;47.50;;;;;;5034568;28;20298;-90
2022/05/14 10:32:47;;;;;;;1.67;1.45;;;30.50;44.60;;;;;;5034611;28;20237;-92
2022/05/14 10:35:19;;;;;;;2.35;1.40;;;30.00;44.50;;;;;;5034634;28;20313;-91
2022/05/14 10:37:51;;;;;;;5.93;1.80;;;29.20;45.50;;;;;;5034711;28;20257;-91
2022/05/14 10:40:27;;;;;;;1.50;1.40;;;28.60;45.70;;;;;;5035004;28;20309;-90
2022/05/14 10:43:11;;;;;;;1.67;1.58;;;28.60;47.90;;;;;;5034492;28;20305;-91
2022/05/14 10:45:43;;;;;;;1.92;1.48;;;28.70;46.50;;;;;;5034388;28;20309;-90
2022/05/14 10:48:22;;;;;;;2.90;1.73;;;28.40;46.80;;;;;;5034151;28;20203;-91
2022/05/14 10:50:50;;;;;;;2.53;1.95;;;28.60;48.70;;;;;;5033948;28;20202;-91
2022/05/14 10:53:21;;;;;;;2.33;1.98;;;28.80;48.90;;;;;;5034013;28;20238;-92
2022/05/14 10:55:59;;;;;;;3.38;2.10;;;29.10;47.50;;;;;;5034258;28;20230;-92
2022/05/14 10:58:39;;;;;;;2.65;1.77;;;29.40;48.80;;;;;;5034279;28;20294;-92
2022/05/14 11:01:08;;;;;;;3.40;2.00;;;30.20;47.20;;;;;;5034064;28;20263;-92
2022/05/14 11:03:40;;;;;;;5.43;2.00;;;29.90;48.40;;;;;;5033952;28;20230;-92
2022/05/14 11:06:13;;;;;;;3.63;1.83;;;30.50;48.40;;;;;;5034227;28;20230;-92
2022/05/14 11:08:46;;;;;;;1.88;1.77;;;30.30;46.00;;;;;;5033781;28;20206;-91
2022/05/14 11:11:20;;;;;;;1.88;1.77;;;30.50;46.90;;;;;;5033566;28;20289;-91
2022/05/14 11:14:02;;;;;;;2.83;2.08;;;30.80;47.60;;;;;;5033608;28;20260;-90
2022/05/14 11:16:41;;;;;;;4.82;1.83;;;31.10;46.20;;;;;;5033502;28;20236;-89
2022/05/14 11:19:11;;;;;;;2.50;1.83;;;31.20;48.10;;;;;;5033750;28;20251;-90
2022/05/14 11:21:43;;;;;;;1.70;1.50;;;31.30;45.70;;;;;;5033690;28;20299;-91
2022/05/14 11:24:15;;;;;;;3.30;1.85;;;31.00;46.10;;;;;;5033545;28;20376;-89
2022/05/14 11:26:47;;;;;;;2.00;1.80;;;31.20;44.90;;;;;;5033698;28;20260;-90
2022/05/14 11:29:19;;;;;;;1.85;1.60;;;31.30;47.20;;;;;;5033529;28;20302;-90
2022/05/14 11:32:06;;;;;;;2.55;1.63;;;30.80;44.70;;;;;;5033234;28;20214;-89
2022/05/14 11:34:35;;;;;;;3.85;2.03;;;30.40;46.10;;;;;;5033037;28;20250;-90
2022/05/14 11:37:07;;;;;;;4.05;1.85;;;30.00;45.70;;;;;;5033312;28;20233;-90
2022/05/14 11:39:38;;;;;;;1.83;1.65;;;29.60;46.80;;;;;;5033259;28;20260;-89
2022/05/14 11:42:29;;;;;;;2.60;1.85;;;29.60;46.30;;;;;;5033116;28;20336;-90
2022/05/14 11:45:04;;;;;;;3.15;1.48;;;29.50;47.10;;;;;;5030483;28;20206;-90
2022/05/14 11:47:55;;;;;;;2.17;1.98;;;29.80;46.90;;;;;;5033151;28;20292;-90
2022/05/14 11:50:29;;;;;;;3.40;1.90;;;30.10;47.70;;;;;;5032500;28;20203;-87
2022/05/14 11:53:11;;;;;;;2.03;1.83;;;30.30;47.90;;;;;;5032830;28;20250;-88
2022/05/14 11:55:48;;;;;;;2.30;2.10;;;30.40;48.40;;;;;;5038511;28;20198;-86
2022/05/14 11:58:24;;;;;;;1.92;1.75;;;30.40;46.30;;;;;;5053084;28;20300;-92
2022/05/14 12:00:54;;;;;;;1.90;1.80;;;30.00;45.60;;;;;;5038115;28;20289;-92
2022/05/14 12:03:31;;;;;;;1.95;1.77;;;30.10;46.90;;;;;;5034352;28;20210;-96
2022/05/14 12:06:07;;;;;;;5.45;1.73;;;30.10;46.50;;;;;;5034010;28;20233;-96
2022/05/14 12:09:05;;;;;;;1.48;1.38;;;30.20;47.40;;;;;;5033512;28;20344;-95
2022/05/14 12:11:44;;;;;;;2.70;2.00;;;30.10;47.70;;;;;;5033463;28;20203;-96
2022/05/14 12:14:19;;;;;;;2.47;1.90;;;30.00;48.00;;;;;;5033039;28;20248;-96
2022/05/14 12:16:54;;;;;;;5.03;2.80;;;30.00;47.60;;;;;;5035079;28;20198;-96
2022/05/14 12:19:26;;;;;;;2.40;2.10;;;30.10;48.60;;;;;;5034129;28;20210;-94
2022/05/14 12:22:01;;;;;;;2.10;1.90;;;30.40;48.60;;;;;;5035359;28;20285;-96
2022/05/14 12:24:32;;;;;;;3.17;2.40;;;30.50;48.90;;;;;;5035097;28;20233;-96
2022/05/14 12:27:08;;;;;;;2.10;1.90;;;30.60;47.30;;;;;;5036351;28;20221;-96
2022/05/14 12:29:39;;;;;;;2.83;2.30;;;30.90;48.10;;;;;;5034249;28;20209;-96
2022/05/14 12:34:57;;;;;;;4.28;2.70;;;30.20;48.50;;;;;;5032677;28;20226;-96
2022/05/14 12:37:28;;;;;;;2.80;2.42;;;30.40;48.40;;;;;;5032726;28;20206;-94
2022/05/14 12:39:58;;;;;;;3.45;2.60;;;30.30;49.70;;;;;;5032663;28;20268;-96
2022/05/14 12:42:36;;;;;;;3.03;2.30;;;30.50;50.80;;;;;;5032721;28;20230;-95
2022/05/14 12:45:06;;;;;;;7.32;2.20;;;30.60;49.40;;;;;;5033196;28;20281;-96
2022/05/14 12:47:37;;;;;;;2.47;2.28;;;30.50;50.60;;;;;;5033224;28;20210;-95
2022/05/14 12:50:18;;;;;;;2.38;2.28;;;30.30;49.00;;;;;;5033016;28;20213;-95
2022/05/14 12:52:56;;;;;;;2.10;1.92;;;30.00;49.20;;;;;;5032411;28;20222;-95
2022/05/14 12:55:26;;;;;;;3.22;2.42;;;30.00;50.10;;;;;;5032454;28;20218;-95
2022/05/14 12:57:58;;;;;;;2.72;2.28;;;30.00;51.00;;;;;;5032764;28;20209;-95
2022/05/14 13:00:27;;;;;;;2.67;2.00;;;30.00;50.10;;;;;;5033150;28;20214;-95
2022/05/14 13:03:01;;;;;;;2.17;2.08;;;29.90;49.50;;;;;;5032728;28;20276;-95
2022/05/14 13:05:34;;;;;;;2.85;2.20;;;29.80;51.20;;;;;;5033157;28;20252;-96
2022/05/14 13:08:07;;;;;;;2.53;2.33;;;29.90;50.70;;;;;;5033006;28;20225;-94
2022/05/14 13:10:37;;;;;;;2.85;2.58;;;29.90;50.70;;;;;;5032463;28;20210;-96
2022/05/14 13:13:09;;;;;;;2.88;2.55;;;29.80;50.20;;;;;;5032303;28;20234;-95
2022/05/14 13:15:41;;;;;;;2.88;2.63;;;29.80;49.90;;;;;;5032202;28;20223;-96
2022/05/14 13:18:15;;;;;;;2.38;2.17;;;29.30;49.90;;;;;;5032354;28;20256;-96
2022/05/14 13:20:44;;;;;;;2.83;2.53;;;29.10;51.70;;;;;;5032537;28;20248;-95
2022/05/14 13:23:21;;;;;;;2.92;2.38;;;28.70;52.20;;;;;;5032213;28;20254;-96
2022/05/14 13:26:00;;;;;;;2.30;2.10;;;28.30;52.80;;;;;;5032777;28;20202;-96
2022/05/14 13:28:32;;;;;;;3.70;2.67;;;28.20;53.40;;;;;;5033118;28;20233;-95
2022/05/14 13:31:04;;;;;;;2.63;2.35;;;28.00;52.80;;;;;;5032299;28;20210;-96
2022/05/14 13:33:35;;;;;;;3.22;2.55;;;27.50;54.10;;;;;;5032563;28;20226;-96